createdAt,value
2022-10-10T00:00:07.019Z,29.1
2022-10-10T00:10:51.317Z,29.1
2022-10-10T00:16:11.865Z,29
2022-10-10T00:21:48.949Z,29
2022-10-10T00:27:30.968Z,29
2022-10-10T00:33:07.695Z,28.9
2022-10-10T00:38:44.286Z,28.9
2022-10-10T00:44:21.464Z,28.9
2022-10-10T00:49:42.419Z,28.9
2022-10-10T00:55:19.420Z,28.9
2022-10-10T01:00:57.168Z,28.8
2022-10-10T01:06:39.394Z,28.8
2022-10-10T01:12:01.005Z,28.8
2022-10-10T01:17:38.426Z,28.8
2022-10-10T01:23:14.848Z,28.8
2022-10-10T01:28:54.497Z,28.8
2022-10-10T01:34:47.094Z,28.7
2022-10-10T01:40:07.736Z,28.7
2022-10-10T01:45:44.418Z,28.7
2022-10-10T01:51:06.118Z,28.7
2022-10-10T01:56:42.597Z,28.7
2022-10-10T02:02:19.629Z,28.6
2022-10-10T02:07:57.892Z,28.6
2022-10-10T02:13:33.232Z,28.6
2022-10-10T02:19:10.654Z,28.6
2022-10-10T02:24:49.072Z,28.6
2022-10-10T02:30:26.164Z,28.6
2022-10-10T02:35:47.799Z,28.6
2022-10-10T02:41:25.074Z,28.5
2022-10-10T02:47:02.252Z,28.5
2022-10-10T02:52:39.340Z,28.5
2022-10-10T02:58:17.077Z,28.4
2022-10-10T03:03:38.717Z,28.4
2022-10-10T03:09:02.374Z,28.4
2022-10-10T03:14:24.395Z,28.4
2022-10-10T03:19:46.133Z,28.4
2022-10-10T03:25:08.894Z,28.4
2022-10-10T03:30:46.481Z,28.4
2022-10-10T03:36:07.635Z,28.4
2022-10-10T03:41:29.001Z,28.4
2022-10-10T03:46:36.272Z,28.3
2022-10-10T03:51:57.055Z,28.3
2022-10-10T03:57:18.874Z,28.3
2022-10-10T04:02:56.453Z,28.3
2022-10-10T04:08:21.969Z,28.2
2022-10-10T04:13:44.225Z,28.1
2022-10-10T04:18:54.997Z,28.1
2022-10-10T04:24:06.399Z,28
2022-10-10T04:28:56.927Z,28
2022-10-10T04:34:03.404Z,27.9
2022-10-10T04:39:09.300Z,27.9
2022-10-10T04:44:36.943Z,27.9
2022-10-10T04:49:58.765Z,27.9
2022-10-10T04:55:35.834Z,27.9
2022-10-10T05:01:13.138Z,27.9
2022-10-10T05:27:16.830Z,27.8
2022-10-10T05:32:59.566Z,27.8
2022-10-10T05:38:36.985Z,27.8
2022-10-10T05:44:14.971Z,27.8
2022-10-10T05:49:57.178Z,27.7
2022-10-10T05:55:35.359Z,27.7
2022-10-10T06:01:13.562Z,27.7
2022-10-10T06:06:52.697Z,27.7
2022-10-10T06:12:59.210Z,27.7
2022-10-10T06:18:39.913Z,27.7
2022-10-10T06:24:18.530Z,27.4
2022-10-10T06:30:23.522Z,27.1
2022-10-10T06:36:04.421Z,26.9
2022-10-10T06:41:45.785Z,26.8
2022-10-10T06:47:08.944Z,26.9
2022-10-10T06:52:46.541Z,26.8
2022-10-10T06:58:24.627Z,26.8
2022-10-10T07:04:03.278Z,39
2022-10-10T07:09:42.519Z,38.5
2022-10-10T07:15:29.648Z,36.6
2022-10-10T07:36:28.170Z,36.9
2022-10-10T07:41:51.199Z,37.6
2022-10-10T07:47:18.493Z,38.4
2022-10-10T07:52:43.713Z,39.1
2022-10-10T07:58:09.491Z,39.9
2022-10-10T08:03:46.595Z,40.7
2022-10-10T08:09:30.504Z,41.2
2022-10-10T08:15:08.823Z,41.7
2022-10-10T08:20:48.715Z,42
2022-10-10T08:26:31.082Z,42.3
2022-10-10T08:32:12.074Z,42.8
2022-10-10T08:37:53.794Z,43.3
2022-10-10T08:43:39.837Z,43.8
2022-10-10T08:49:18.225Z,44
2022-10-10T08:54:58.399Z,44.3
2022-10-10T09:00:36.644Z,44.4
2022-10-10T09:07:20.416Z,44.6
2022-10-10T09:12:57.518Z,44.8
2022-10-10T09:18:40.540Z,45.2
2022-10-10T09:24:23.266Z,45.6
2022-10-10T09:30:07.900Z,46
2022-10-10T09:35:46.163Z,46.4
2022-10-10T09:41:45.939Z,46.6
2022-10-10T09:47:24.207Z,46.6
2022-10-10T09:53:02.807Z,46.4
2022-10-10T09:58:41.110Z,46.2
2022-10-10T10:04:33.653Z,46.1
2022-10-10T10:10:12.703Z,45.7
2022-10-10T10:15:50.773Z,45.3
2022-10-10T10:21:33.478Z,45
2022-10-10T10:26:58.841Z,45
2022-10-10T10:32:21.958Z,45.3
2022-10-10T10:38:04.243Z,45.6
2022-10-10T10:43:41.943Z,45.7
2022-10-10T10:49:23.134Z,45.9
2022-10-10T10:55:03.151Z,45.9
2022-10-10T11:06:31.221Z,45.4
2022-10-10T11:12:56.691Z,44.8
2022-10-10T11:19:18.867Z,44.7
2022-10-10T11:25:04.213Z,44.3
2022-10-10T11:30:45.378Z,43.8
2022-10-10T11:36:26.528Z,43.4
2022-10-10T11:42:04.601Z,43.1
2022-10-10T11:47:48.433Z,42.9
2022-10-10T16:11:59.970Z,30.6
2022-10-10T16:17:25.569Z,30.2
2022-10-10T16:23:10.429Z,29.9
2022-10-10T16:29:08.065Z,29.6
2022-10-10T16:34:22.653Z,29.3
2022-10-10T16:40:02.570Z,29.1
2022-10-10T16:46:08.544Z,28.9
2022-10-10T16:51:33.628Z,28.7
2022-10-10T16:56:58.977Z,28.5
2022-10-10T17:02:45.994Z,28.4
2022-10-10T17:08:30.630Z,28.2
2022-10-10T17:14:09.474Z,28.1
2022-10-10T17:20:41.631Z,27.9
2022-10-10T17:25:49.456Z,27.8
2022-10-10T17:31:27.206Z,27.7
2022-10-10T17:37:15.137Z,27.6
2022-10-10T17:49:01.965Z,27.4
2022-10-10T17:54:24.471Z,27.3
2022-10-10T17:59:31.592Z,27.3
2022-10-10T18:05:08.531Z,27.2
2022-10-10T18:10:46.013Z,27.1
2022-10-10T18:16:39.319Z,27.1
2022-10-10T18:22:16.551Z,27
2022-10-10T18:27:55.020Z,26.9
2022-10-10T18:33:24.074Z,26.8
2022-10-10T18:39:01.645Z,26.9
2022-10-10T18:44:38.810Z,26.8
2022-10-10T18:50:01.577Z,26.7
2022-10-10T18:55:38.289Z,26.5
2022-10-10T19:01:19.931Z,26.1
2022-10-10T19:06:58.645Z,25.7
2022-10-10T19:12:35.712Z,25.3
2022-10-10T19:18:13.997Z,25
2022-10-10T19:23:53.526Z,24.8
2022-10-10T19:29:36.072Z,24.6
2022-10-10T19:34:59.516Z,24.4
2022-10-10T19:40:39.553Z,24.3
2022-10-10T19:46:17.390Z,24.1
2022-10-10T19:51:59.213Z,24.1
2022-10-10T19:57:37.165Z,24
2022-10-10T20:03:14.674Z,23.9
2022-10-10T20:08:38.052Z,23.8
2022-10-10T20:14:16.018Z,23.8
2022-10-10T20:19:37.462Z,23.7
